Time;durP1;ratioP1;P1;durP2;ratioP2;P2;SDS_P1;SDS_P2;PMS_P1;PMS_P2;Temp;Humidity;BMP_temperature;BMP_pressure;BME280_temperature;BME280_humidity;BME280_pressure;Samples;Min_cycle;Max_cycle;Signal;HPM_P1;HPM_P2
2024/02/29 00:01:26;;;;;;;54.88;24.33;;;;;;;4.96;100.00;101090.03;5007758;28;20088;-76
2024/02/29 00:03:52;;;;;;;53.30;24.07;;;;;;;5.01;100.00;101079.09;4990627;28;20414;-76
2024/02/29 00:06:17;;;;;;;53.17;23.40;;;;;;;4.94;100.00;101091.97;5004843;28;20080;-76
2024/02/29 00:08:42;;;;;;;59.63;24.17;;;;;;;4.93;100.00;101084.97;5007462;28;20367;-74
2024/02/29 00:11:08;;;;;;;56.27;22.13;;;;;;;4.87;100.00;101082.81;5006826;28;20026;-74
2024/02/29 00:13:33;;;;;;;56.40;24.13;;;;;;;5.07;100.00;101105.94;5007882;28;20767;-75
2024/02/29 00:15:58;;;;;;;55.88;22.77;;;;;;;4.86;100.00;101059.94;5007799;28;20021;-73
2024/02/29 00:18:24;;;;;;;56.10;22.87;;;;;;;4.77;100.00;101064.13;5006358;28;20030;-74
2024/02/29 00:20:49;;;;;;;55.80;24.40;;;;;;;4.96;100.00;101094.47;5007670;28;20276;-74
2024/02/29 00:23:15;;;;;;;61.55;25.08;;;;;;;4.98;100.00;101055.53;5007977;28;20864;-73
2024/02/29 00:25:41;;;;;;;54.87;24.10;;;;;;;5.10;100.00;101069.59;5007547;28;20125;-73
2024/02/29 00:28:06;;;;;;;55.90;25.20;;;;;;;5.18;100.00;101046.03;5007523;28;20350;-74
2024/02/29 00:30:31;;;;;;;61.63;26.43;;;;;;;4.99;100.00;100960.16;5006105;28;20292;-77
2024/02/29 00:32:57;;;;;;;66.40;26.40;;;;;;;4.79;100.00;100972.28;5007732;28;20037;-77
2024/02/29 00:35:23;;;;;;;58.53;25.38;;;;;;;4.83;100.00;101004.63;5005953;28;20364;-73
2024/02/29 00:37:48;;;;;;;64.78;27.58;;;;;;;4.76;100.00;100992.84;5007356;28;20026;-74
2024/02/29 00:40:14;;;;;;;61.90;25.80;;;;;;;4.75;100.00;100967.34;5005726;28;20077;-75
2024/02/29 00:42:40;;;;;;;;;;;;;;;4.76;100.00;100984.91;4991049;28;20272;-75
2024/02/29 00:45:06;;;;;;;64.45;26.27;;;;;;;4.75;100.00;100973.50;4993916;28;19924;-75
2024/02/29 00:47:31;;;;;;;63.67;25.13;;;;;;;4.70;100.00;100977.44;4985432;28;20042;-74
2024/02/29 00:49:56;;;;;;;66.53;26.67;;;;;;;4.78;100.00;100985.66;5006006;28;20046;-72
2024/02/29 00:52:22;;;;;;;62.75;26.50;;;;;;;4.69;100.00;100925.53;5000413;28;20108;-73
2024/02/29 00:54:47;;;;;;;73.23;28.37;;;;;;;4.65;100.00;100936.31;4993016;28;20366;-74
2024/02/29 00:57:13;;;;;;;57.58;25.33;;;;;;;4.61;100.00;100921.69;5005469;28;20045;-74
2024/02/29 00:59:38;;;;;;;74.25;26.63;;;;;;;4.41;100.00;100946.16;4997376;28;20022;-75
2024/02/29 01:02:03;;;;;;;72.83;30.47;;;;;;;4.40;100.00;100978.84;5007049;28;20037;-75
2024/02/29 01:04:29;;;;;;;67.72;29.02;;;;;;;4.39;100.00;100970.06;4984337;28;20289;-75
2024/02/29 01:06:56;;;;;;;74.33;27.70;;;;;;;4.39;100.00;100974.53;5000079;28;20025;-75
2024/02/29 01:09:26;;;;;;;64.75;25.92;;;;;;;4.59;100.00;100981.78;5005117;28;20034;-75
2024/02/29 01:11:53;;;;;;;67.50;29.83;;;;;;;4.19;100.00;100921.38;5005453;28;20440;-73
2024/02/29 01:14:18;;;;;;;;;;;;;;;4.30;100.00;100954.06;5005713;28;20054;-74
2024/02/29 01:16:43;;;;;;;74.63;30.55;;;;;;;4.39;100.00;100942.78;5006430;28;20446;-75
2024/02/29 01:19:09;;;;;;;58.87;25.57;;;;;;;4.46;100.00;100932.59;5005264;28;20021;-74
2024/02/29 01:21:34;;;;;;;73.77;27.80;;;;;;;4.24;100.00;100897.25;4987825;28;20368;-75
2024/02/29 01:23:59;;;;;;;71.50;27.38;;;;;;;4.19;100.00;100887.03;5006608;28;20044;-75
2024/02/29 01:26:25;;;;;;;69.22;26.83;;;;;;;4.10;100.00;100882.44;5005709;28;20050;-74
2024/02/29 01:28:50;;;;;;;71.35;27.73;;;;;;;4.33;100.00;100916.81;4992153;28;20088;-74
2024/02/29 01:31:16;;;;;;;67.50;25.90;;;;;;;4.44;100.00;100904.44;5006175;28;20040;-75
2024/02/29 01:33:41;;;;;;;69.45;27.00;;;;;;;4.20;100.00;100869.38;5006435;28;20034;-74
2024/02/29 01:36:06;;;;;;;67.40;27.33;;;;;;;3.98;100.00;100833.16;5006118;28;20025;-72
2024/02/29 01:38:32;;;;;;;71.45;27.02;;;;;;;4.07;100.00;100889.75;5005998;28;20026;-74
2024/02/29 01:40:57;;;;;;;69.47;29.90;;;;;;;3.97;100.00;100853.47;5006073;28;20503;-75
2024/02/29 01:43:22;;;;;;;70.73;28.70;;;;;;;4.07;100.00;100848.31;4991349;28;20026;-74
2024/02/29 01:46:07;;;;;;;62.23;25.80;;;;;;;4.04;100.00;100853.00;5004495;28;20297;-75
2024/02/29 01:48:32;;;;;;;67.20;27.27;;;;;;;4.02;100.00;100845.19;5004667;28;20048;-75
2024/02/29 01:50:58;;;;;;;72.25;27.60;;;;;;;3.95;100.00;100836.88;5006057;28;20377;-75
2024/02/29 01:53:24;;;;;;;74.85;29.88;;;;;;;3.94;100.00;100837.84;5005815;28;20046;-75
2024/02/29 01:55:49;;;;;;;66.90;27.88;;;;;;;4.08;100.00;100850.00;4997474;28;20068;-73
2024/02/29 01:58:15;;;;;;;66.60;29.17;;;;;;;3.99;100.00;100821.66;5005771;28;20095;-74
2024/02/29 02:00:40;;;;;;;69.30;30.33;;;;;;;3.85;100.00;100808.66;5004469;28;20025;-75
2024/02/29 02:03:06;;;;;;;66.07;25.33;;;;;;;4.10;100.00;100850.75;4981712;28;20323;-74
2024/02/29 02:05:31;;;;;;;61.25;26.88;;;;;;;4.28;100.00;100824.66;5005306;28;20041;-75
2024/02/29 02:07:56;;;;;;;70.57;28.83;;;;;;;4.27;100.00;100758.72;5001696;28;20457;-73
2024/02/29 02:10:22;;;;;;;69.15;29.23;;;;;;;4.24;100.00;100725.47;4996111;28;20037;-72
2024/02/29 02:12:47;;;;;;;61.95;25.55;;;;;;;4.09;100.00;100681.75;4998909;28;20470;-75
2024/02/29 02:15:13;;;;;;;67.78;29.20;;;;;;;4.25;100.00;100697.22;5005649;28;20077;-75
2024/02/29 02:17:41;;;;;;;63.85;26.88;;;;;;;4.37;100.00;100686.50;5002349;28;20080;-75
2024/02/29 02:20:14;;;;;;;67.20;29.25;;;;;;;4.11;100.00;100605.84;5000420;28;20036;-73
2024/02/29 02:22:39;;;;;;;71.95;28.73;;;;;;;3.93;100.00;100634.56;5003522;28;20049;-74
2024/02/29 02:25:05;;;;;;;66.65;28.70;;;;;;;4.12;100.00;100644.50;4992478;28;20068;-73
2024/02/29 02:27:31;;;;;;;66.18;28.40;;;;;;;4.33;100.00;100658.66;5005511;28;20041;-73
2024/02/29 02:29:56;;;;;;;60.63;27.70;;;;;;;3.99;100.00;100581.25;5005600;28;20042;-74
2024/02/29 02:32:22;;;;;;;66.35;26.52;;;;;;;4.19;100.00;100620.13;5005273;28;20303;-76
2024/02/29 02:34:47;;;;;;;74.53;28.33;;;;;;;3.93;100.00;100585.25;5005732;28;20029;-74
2024/02/29 02:37:12;;;;;;;59.45;25.80;;;;;;;4.13;100.00;100602.09;5004087;28;20426;-74
2024/02/29 02:39:38;;;;;;;72.35;29.20;;;;;;;4.05;100.00;100577.25;5004342;28;20473;-75
2024/02/29 02:42:03;;;;;;;70.95;29.60;;;;;;;4.10;100.00;100575.94;5005704;28;20048;-73
2024/02/29 02:44:29;;;;;;;65.78;29.17;;;;;;;4.18;100.00;100560.28;5005324;28;20026;-74
2024/02/29 02:46:54;;;;;;;65.10;26.40;;;;;;;4.29;100.00;100551.50;5004073;28;20061;-74
2024/02/29 02:49:23;;;;;;;70.40;27.93;;;;;;;4.17;100.00;100505.78;5005430;28;20276;-74
2024/02/29 02:51:49;;;;;;;65.65;26.75;;;;;;;4.13;100.00;100511.44;4996540;28;20434;-73
2024/02/29 02:54:14;;;;;;;70.30;28.08;;;;;;;3.91;100.00;100478.00;5005354;28;20171;-75
2024/02/29 02:56:39;;;;;;;69.57;27.63;;;;;;;4.09;100.00;100521.41;5003636;28;20021;-73
2024/02/29 02:59:05;;;;;;;66.70;29.17;;;;;;;4.07;100.00;100520.69;5004355;28;20494;-74
2024/02/29 03:01:30;;;;;;;71.67;30.23;;;;;;;3.97;100.00;100466.94;5005246;28;20350;-74
2024/02/29 03:03:56;;;;;;;68.18;29.20;;;;;;;3.97;100.00;100440.53;5004223;28;20029;-73
2024/02/29 03:06:21;;;;;;;68.93;29.15;;;;;;;3.97;100.00;100424.69;5004631;28;20042;-76
2024/02/29 03:08:46;;;;;;;71.88;29.83;;;;;;;3.84;100.00;100434.59;5005318;28;20037;-76
2024/02/29 03:11:12;;;;;;;72.95;29.35;;;;;;;3.78;100.00;100457.91;5004167;28;20042;-74
2024/02/29 03:13:38;;;;;;;65.18;28.17;;;;;;;3.91;100.00;100446.31;5003875;28;20451;-76
2024/02/29 03:16:03;;;;;;;;;;;;;;;4.07;100.00;100478.41;5005444;28;20033;-76
2024/02/29 03:18:29;;;;;;;68.13;29.83;;;;;;;3.65;100.00;100420.25;5004855;28;19913;-75
2024/02/29 03:20:54;;;;;;;68.07;30.23;;;;;;;3.93;100.00;100495.44;4985537;28;20022;-75
2024/02/29 03:23:20;;;;;;;69.38;29.95;;;;;;;3.71;100.00;100437.41;5001789;28;20521;-76
2024/02/29 03:25:46;;;;;;;68.25;26.85;;;;;;;3.70;100.00;100444.50;5004562;28;20141;-76
2024/02/29 03:28:11;;;;;;;68.53;27.65;;;;;;;3.64;100.00;100463.47;5004718;28;20034;-73
2024/02/29 03:30:37;;;;;;;69.70;28.98;;;;;;;3.64;100.00;100487.22;5004662;28;20176;-75
2024/02/29 03:33:02;;;;;;;73.63;30.53;;;;;;;3.46;100.00;100478.16;4997939;28;20448;-76
2024/02/29 03:35:28;;;;;;;75.00;30.77;;;;;;;3.46;100.00;100483.44;5004327;28;20360;-76
2024/02/29 03:37:53;;;;;;;72.57;31.08;;;;;;;3.65;100.00;100544.34;5001110;28;20034;-75
2024/02/29 03:40:18;;;;;;;79.47;32.90;;;;;;;3.48;100.00;100534.28;4993090;28;20042;-76
2024/02/29 03:42:44;;;;;;;76.85;32.08;;;;;;;3.42;100.00;100503.09;4996417;28;20401;-76
2024/02/29 03:45:09;;;;;;;73.38;28.95;;;;;;;3.37;100.00;100520.16;4976479;28;20034;-75
2024/02/29 03:47:36;;;;;;;68.93;28.63;;;;;;;3.58;100.00;100561.63;5006682;28;20064;-76
2024/02/29 03:50:01;;;;;;;68.88;30.73;;;;;;;3.42;100.00;100503.09;5006752;28;20037;-73
2024/02/29 03:52:26;;;;;;;75.38;28.70;;;;;;;3.46;100.00;100512.47;4983376;28;20034;-73
2024/02/29 03:54:52;;;;;;;71.37;29.70;;;;;;;3.31;100.00;100473.13;5008427;28;20129;-75
2024/02/29 03:57:17;;;;;;;65.00;29.48;;;;;;;3.37;100.00;100501.69;5007716;28;20045;-75
2024/02/29 03:59:44;;;;;;;72.93;30.30;;;;;;;3.31;100.00;100459.94;5006878;28;20026;-76
2024/02/29 04:02:09;;;;;;;80.47;30.98;;;;;;;3.35;100.00;100506.25;5006587;28;20034;-73
2024/02/29 04:04:35;;;;;;;77.15;31.83;;;;;;;3.48;100.00;100516.66;5007943;28;20088;-73
2024/02/29 04:07:00;;;;;;;81.32;31.33;;;;;;;3.24;100.00;100461.41;5007886;28;20091;-73
2024/02/29 04:09:26;;;;;;;72.43;31.27;;;;;;;3.15;100.00;100475.31;5008043;28;20034;-73
2024/02/29 04:11:51;;;;;;;78.80;30.08;;;;;;;3.25;100.00;100526.38;5008062;28;20034;-77
2024/02/29 04:14:16;;;;;;;79.53;33.33;;;;;;;3.26;100.00;100524.63;5000806;28;20735;-76
2024/02/29 04:16:42;;;;;;;68.70;29.60;;;;;;;2.98;100.00;100486.38;5004507;28;20025;-73
2024/02/29 04:19:07;;;;;;;66.97;27.63;;;;;;;3.07;100.00;100512.84;4994849;28;20160;-74
2024/02/29 04:21:33;;;;;;;76.75;31.75;;;;;;;3.22;100.00;100524.00;5006168;28;20061;-73
2024/02/29 04:24:00;;;;;;;70.63;30.70;;;;;;;3.13;100.00;100493.06;5001676;28;20500;-73
2024/02/29 04:26:25;;;;;;;72.63;30.60;;;;;;;3.19;100.00;100505.78;5007346;28;20061;-73
2024/02/29 04:28:51;;;;;;;69.63;29.40;;;;;;;2.92;100.00;100463.94;5008018;28;20127;-73
2024/02/29 04:31:17;;;;;;;74.40;32.40;;;;;;;2.87;100.00;100503.84;5007845;28;20034;-76
2024/02/29 04:33:45;;;;;;;69.72;29.90;;;;;;;2.98;100.00;100529.41;5007083;28;20022;-78
2024/02/29 04:36:10;;;;;;;75.70;31.63;;;;;;;2.90;100.00;100498.34;5007363;28;20045;-75
2024/02/29 04:38:36;;;;;;;71.53;28.60;;;;;;;2.89;100.00;100520.38;4998672;28;20102;-77
2024/02/29 04:41:01;;;;;;;68.47;28.63;;;;;;;2.95;100.00;100498.00;5007564;28;20532;-73
2024/02/29 04:43:26;;;;;;;74.07;29.48;;;;;;;2.94;100.00;100483.94;5006262;28;20022;-74
2024/02/29 04:45:52;;;;;;;82.72;31.42;;;;;;;2.77;100.00;100481.78;4999834;28;20029;-73
2024/02/29 04:48:17;;;;;;;74.13;32.08;;;;;;;2.92;100.00;100516.69;5007512;28;20107;-73
2024/02/29 04:50:42;;;;;;;67.50;28.88;;;;;;;2.98;100.00;100492.47;5007103;28;20374;-73
2024/02/29 04:53:08;;;;;;;72.18;30.40;;;;;;;2.79;100.00;100436.88;4992958;28;20150;-73
2024/02/29 04:55:34;;;;;;;68.40;30.00;;;;;;;2.83;100.00;100460.22;5005295;28;20040;-73
2024/02/29 04:58:00;;;;;;;71.82;30.23;;;;;;;2.56;100.00;100436.84;5007419;28;20041;-73
2024/02/29 05:00:25;;;;;;;78.70;31.63;;;;;;;2.75;100.00;100483.72;4999214;28;20024;-76
2024/02/29 05:02:50;;;;;;;69.43;29.38;;;;;;;2.57;100.00;100448.22;5006312;28;20052;-77
2024/02/29 05:05:16;;;;;;;72.57;30.10;;;;;;;2.64;100.00;100470.50;5006043;28;20064;-73
2024/02/29 05:07:41;;;;;;;73.35;28.27;;;;;;;2.76;100.00;100485.38;4997738;28;20034;-73
2024/02/29 05:10:07;;;;;;;71.32;29.70;;;;;;;2.59;100.00;100441.03;5007076;28;20053;-73
2024/02/29 05:12:33;;;;;;;71.63;30.75;;;;;;;2.47;100.00;100427.84;5006961;28;20113;-73
2024/02/29 05:14:59;;;;;;;77.63;31.65;;;;;;;2.30;100.00;100430.94;5006852;28;20108;-75
2024/02/29 05:17:25;;;;;;;78.28;31.58;;;;;;;2.50;100.00;100480.31;5007047;28;20432;-75
2024/02/29 05:19:51;;;;;;;81.47;31.95;;;;;;;2.48;100.00;100468.19;5006792;28;20044;-75
2024/02/29 05:22:17;;;;;;;74.13;31.45;;;;;;;2.56;100.00;100500.09;5005633;28;20033;-74
2024/02/29 05:24:43;;;;;;;70.93;29.98;;;;;;;2.47;100.00;100477.09;5006800;28;20503;-75
2024/02/29 05:27:08;;;;;;;74.45;34.15;;;;;;;2.41;100.00;100465.22;5006172;28;20038;-73
2024/02/29 05:29:33;;;;;;;80.03;31.60;;;;;;;2.41;100.00;100491.56;5006533;28;20511;-73
2024/02/29 05:31:59;;;;;;;72.95;31.55;;;;;;;2.28;100.00;100480.28;5006627;28;20041;-75
2024/02/29 05:34:24;;;;;;;76.05;28.67;;;;;;;2.27;100.00;100515.47;5006607;28;20034;-72
2024/02/29 05:36:50;;;;;;;76.55;30.15;;;;;;;2.39;100.00;100535.63;5006089;28;20026;-75
2024/02/29 05:39:15;;;;;;;78.75;30.58;;;;;;;2.35;100.00;100518.38;5004903;28;20513;-72
2024/02/29 05:41:41;;;;;;;72.05;30.33;;;;;;;2.45;100.00;100529.88;5005340;28;20022;-73
2024/02/29 05:44:08;;;;;;;68.38;30.75;;;;;;;2.49;100.00;100518.16;5006182;28;20509;-75
2024/02/29 05:46:34;;;;;;;74.30;30.38;;;;;;;2.47;100.00;100491.09;4995741;28;20034;-75
2024/02/29 05:49:00;;;;;;;80.00;33.05;;;;;;;2.42;100.00;100477.44;4999555;28;20033;-75
2024/02/29 05:51:26;;;;;;;71.45;29.63;;;;;;;2.49;100.00;100478.63;5005700;28;20037;-72
2024/02/29 05:53:51;;;;;;;70.60;32.22;;;;;;;2.26;100.00;100413.69;4982452;28;20022;-74
2024/02/29 05:56:17;;;;;;;69.10;26.85;;;;;;;2.51;100.00;100479.38;4997178;28;20505;-75
2024/02/29 05:58:43;;;;;;;68.88;29.80;;;;;;;2.30;100.00;100425.69;4998004;28;20030;-75
2024/02/29 06:01:08;;;;;;;64.07;27.17;;;;;;;2.47;100.00;100474.44;5005800;28;20065;-75
2024/02/29 06:03:36;;;;;;;67.15;27.70;;;;;;;2.58;100.00;100450.75;5005593;28;20501;-74
2024/02/29 06:06:02;;;;;;;63.70;28.42;;;;;;;2.49;100.00;100417.19;5000726;28;20030;-75
2024/02/29 06:08:28;;;;;;;69.70;27.38;;;;;;;2.61;100.00;100412.78;4986424;28;20089;-73
2024/02/29 06:10:54;;;;;;;58.38;26.80;;;;;;;2.59;100.00;100372.50;5001358;28;20038;-74
2024/02/29 06:13:19;;;;;;;72.03;29.55;;;;;;;2.70;100.00;100393.59;4969695;28;20033;-75
2024/02/29 06:15:44;;;;;;;65.28;27.20;;;;;;;2.65;100.00;100348.31;5005131;28;20024;-75
2024/02/29 06:18:11;;;;;;;60.42;26.65;;;;;;;2.65;100.00;100350.97;4996904;28;20117;-75
2024/02/29 06:20:36;;;;;;;;;;;;;;;2.70;100.00;100348.78;5006187;28;20038;-75
2024/02/29 06:23:01;;;;;;;60.50;25.25;;;;;;;2.82;100.00;100361.00;5006034;28;20007;-73
2024/02/29 06:25:27;;;;;;;56.97;25.13;;;;;;;2.97;100.00;100356.28;4997643;28;20516;-75
2024/02/29 06:27:52;;;;;;;66.88;29.08;;;;;;;2.64;100.00;100251.75;4990398;28;20034;-75
2024/02/29 06:30:18;;;;;;;56.30;24.85;;;;;;;2.64;100.00;100286.84;5005954;28;20037;-73
2024/02/29 06:32:44;;;;;;;70.03;25.55;;;;;;;2.72;100.00;100307.34;5004418;28;20060;-75
2024/02/29 06:35:10;;;;;;;57.97;24.92;;;;;;;2.93;100.00;100329.34;5005929;28;20029;-74
2024/02/29 06:37:38;;;;;;;;;;;;;;;2.95;100.00;100272.03;5006262;28;20121;-74
2024/02/29 06:40:07;;;;;;;64.03;26.27;;;;;;;2.88;100.00;100236.59;4991798;28;19917;-73
2024/02/29 06:42:33;;;;;;;55.17;25.75;;;;;;;2.96;100.00;100249.97;5003299;28;20096;-73
2024/02/29 06:44:58;;;;;;;54.40;24.58;;;;;;;3.12;100.00;100252.19;5005613;28;20038;-73
2024/02/29 06:47:23;;;;;;;53.83;24.90;;;;;;;3.05;100.00;100192.16;5005846;28;20125;-74
2024/02/29 06:49:49;;;;;;;62.03;26.73;;;;;;;3.00;100.00;100189.03;4988364;28;20727;-73
2024/02/29 06:52:15;;;;;;;56.80;26.25;;;;;;;3.04;100.00;100158.81;5004294;28;20129;-74
2024/02/29 06:54:42;;;;;;;63.13;24.95;;;;;;;3.37;100.00;100185.03;4988402;28;20381;-76
2024/02/29 06:57:08;;;;;;;50.80;23.77;;;;;;;3.30;100.00;100140.78;5004444;28;20484;-73
2024/02/29 06:59:33;;;;;;;54.97;23.20;;;;;;;3.51;100.00;100159.25;5004932;28;20040;-73
2024/02/29 07:01:59;;;;;;;59.87;25.90;;;;;;;3.53;100.00;100083.41;4998809;28;20089;-74
2024/02/29 07:04:24;;;;;;;52.70;23.47;;;;;;;3.53;100.00;100063.13;5004598;28;20327;-75
2024/02/29 07:06:49;;;;;;;48.67;22.37;;;;;;;3.80;100.00;100053.75;5004927;28;21252;-73
2024/02/29 07:09:15;;;;;;;56.75;24.80;;;;;;;3.72;100.00;100012.22;5004497;28;20030;-74
2024/02/29 07:11:40;;;;;;;50.72;22.17;;;;;;;3.48;100.00;99927.25;4994882;28;20125;-75
2024/02/29 07:14:05;;;;;;;52.75;23.27;;;;;;;3.60;100.00;99989.50;5005659;28;20044;-75
2024/02/29 07:16:32;;;;;;;46.07;21.03;;;;;;;3.87;100.00;100019.72;5003749;28;20038;-75
2024/02/29 07:18:58;;;;;;;49.55;23.35;;;;;;;4.08;100.00;99927.16;5006178;28;20038;-73
2024/02/29 07:21:23;;;;;;;53.33;23.48;;;;;;;3.96;100.00;99860.44;5007895;28;20061;-74
2024/02/29 07:23:48;;;;;;;53.22;23.42;;;;;;;4.14;100.00;99866.63;4998873;28;20037;-74
2024/02/29 07:26:14;;;;;;;53.67;23.08;;;;;;;4.34;100.00;99848.94;5005008;28;20045;-74
2024/02/29 07:28:39;;;;;;;48.00;21.43;;;;;;;4.32;100.00;99795.38;5007148;28;20040;-74
2024/02/29 07:31:05;;;;;;;45.80;21.03;;;;;;;4.38;100.00;99772.84;5001500;28;20312;-74
2024/02/29 07:33:34;;;;;;;;;;;;;;;4.30;100.00;99727.81;5005533;28;20273;-75
2024/02/29 07:36:00;;;;;;;48.70;21.80;;;;;;;4.82;100.00;99810.88;5007491;28;19921;-74
2024/02/29 07:38:25;;;;;;;46.50;21.17;;;;;;;4.64;100.00;99651.38;5007065;28;20037;-76
2024/02/29 07:40:50;;;;;;;51.73;22.93;;;;;;;4.56;100.00;99670.59;4991385;28;20026;-74
2024/02/29 07:43:16;;;;;;;44.97;22.20;;;;;;;4.67;100.00;99618.50;5007308;28;20991;-74
2024/02/29 07:45:41;;;;;;;46.92;20.55;;;;;;;4.61;100.00;99561.78;5008437;28;20034;-75
2024/02/29 07:48:06;;;;;;;42.40;20.58;;;;;;;4.63;100.00;99581.78;4991033;28;20030;-74
2024/02/29 07:50:32;;;;;;;43.07;20.97;;;;;;;4.94;100.00;99646.66;4991236;28;20061;-74
2024/02/29 07:52:57;;;;;;;46.05;20.80;;;;;;;5.11;100.00;99578.84;5007687;28;20320;-75
2024/02/29 07:55:23;;;;;;;43.00;21.92;;;;;;;5.28;100.00;99621.09;5007191;28;20040;-75
2024/02/29 07:57:48;;;;;;;44.05;20.88;;;;;;;5.26;100.00;99489.94;5007231;28;20034;-74
2024/02/29 08:00:14;;;;;;;63.03;21.60;;;;;;;5.38;100.00;99548.72;5007532;28;20030;-74
2024/02/29 08:02:43;;;;;;;40.33;19.35;;;;;;;5.56;100.00;99615.66;5008698;28;20868;-74
2024/02/29 08:05:09;;;;;;;45.72;19.95;;;;;;;5.59;100.00;99466.22;5002662;28;20389;-74
2024/02/29 08:07:35;;;;;;;43.30;21.33;;;;;;;5.33;100.00;99394.84;5004534;28;20084;-74
2024/02/29 08:10:01;;;;;;;38.65;19.75;;;;;;;5.92;100.00;99520.94;5008552;28;20803;-75
2024/02/29 08:12:27;;;;;;;40.22;19.48;;;;;;;6.00;100.00;99469.00;5007187;28;20405;-74
2024/02/29 08:14:52;;;;;;;37.55;17.95;;;;;;;5.70;100.00;99325.56;5008250;28;20033;-74
2024/02/29 08:17:17;;;;;;;41.72;18.17;;;;;;;5.90;100.00;99364.00;5007863;28;20030;-75
2024/02/29 08:19:43;;;;;;;42.33;20.38;;;;;;;6.12;100.00;99348.44;4981219;28;20039;-74
2024/02/29 08:22:08;;;;;;;38.13;19.38;;;;;;;6.90;100.00;99394.63;5008334;28;20045;-74
2024/02/29 08:24:34;;;;;;;40.73;20.83;;;;;;;6.98;100.00;99184.97;5008254;28;20116;-74
2024/02/29 08:26:59;;;;;;;33.47;17.85;;;;;;;6.64;100.00;99042.97;5008045;28;20030;-74
2024/02/29 08:29:25;;;;;;;37.80;18.45;;;;;;;6.67;100.00;99188.50;5008055;28;20474;-74
2024/02/29 08:31:50;;;;;;;36.22;17.65;;;;;;;7.02;100.00;99127.88;5007728;28;20041;-76
2024/02/29 08:34:16;;;;;;;35.97;16.37;;;;;;;6.71;100.00;99029.84;5008094;28;20034;-75
2024/02/29 08:36:41;;;;;;;38.88;18.83;;;;;;;6.44;100.00;99044.47;5007663;28;20287;-74
2024/02/29 08:39:06;;;;;;;36.50;17.80;;;;;;;6.65;100.00;99055.25;5006835;28;20040;-74
2024/02/29 08:41:32;;;;;;;39.70;18.63;;;;;;;7.09;100.00;99122.69;5007661;28;20029;-74
2024/02/29 08:43:57;;;;;;;36.93;17.17;;;;;;;7.31;100.00;99131.63;5007881;28;20851;-74
2024/02/29 08:46:23;;;;;;;34.08;17.25;;;;;;;7.62;100.00;99070.38;5005558;28;20065;-74
2024/02/29 08:48:49;;;;;;;34.40;17.53;;;;;;;7.50;100.00;98949.69;5007669;28;20037;-74
2024/02/29 08:51:14;;;;;;;35.87;17.10;;;;;;;7.47;100.00;98907.56;5007908;28;20160;-74
2024/02/29 08:53:39;;;;;;;37.70;16.60;;;;;;;7.35;100.00;98913.38;5007730;28;20072;-74
2024/02/29 08:56:05;;;;;;;31.70;16.70;;;;;;;7.48;100.00;98891.44;5007490;28;20367;-76
2024/02/29 08:58:30;;;;;;;33.07;17.20;;;;;;;8.11;100.00;99023.72;5005962;28;20148;-75
2024/02/29 09:00:56;;;;;;;36.50;19.30;;;;;;;7.70;100.00;98729.44;5006397;28;20287;-75
2024/02/29 09:03:22;;;;;;;33.17;16.17;;;;;;;7.89;100.00;98962.59;5022861;28;20269;-74
2024/02/29 09:05:47;;;;;;;32.42;16.27;;;;;;;8.18;100.00;98887.22;5005988;28;20033;-74
2024/02/29 09:08:13;;;;;;;30.17;15.90;;;;;;;7.58;100.00;98698.09;5006266;28;20493;-75
2024/02/29 09:10:38;;;;;;;31.48;16.58;;;;;;;7.67;100.00;98852.00;5006095;28;20656;-75
2024/02/29 09:13:04;;;;;;;36.30;17.15;;;;;;;7.95;100.00;98940.56;5007365;28;20092;-75
2024/02/29 09:15:30;;;;;;;29.63;14.88;;;;;;;7.99;100.00;98909.94;5007075;28;20022;-75
2024/02/29 09:17:56;;;;;;;;;;;;;;;8.60;100.00;99069.03;5007616;28;20030;-74
2024/02/29 09:20:22;;;;;;;29.67;14.48;;;;;;;8.17;100.00;98919.28;5005848;28;19920;-75
2024/02/29 09:22:49;;;;;;;29.13;14.50;;;;;;;8.61;100.00;98990.06;5011176;28;20093;-75
2024/02/29 09:25:14;;;;;;;29.33;16.10;;;;;;;9.06;100.00;98918.69;4987499;28;20034;-75
2024/02/29 09:27:40;;;;;;;26.40;13.35;;;;;;;8.75;100.00;98631.81;5003569;28;20591;-76
2024/02/29 09:30:05;;;;;;;29.57;14.77;;;;;;;8.87;100.00;98796.00;5002393;28;20089;-74
2024/02/29 09:32:31;;;;;;;28.58;13.48;;;;;;;9.02;100.00;98757.75;4995710;28;20034;-75
2024/02/29 09:34:56;;;;;;;30.53;15.43;;;;;;;8.81;100.00;98850.00;5006959;28;20065;-75
2024/02/29 09:37:22;;;;;;;27.10;14.27;;;;;;;8.75;100.00;98755.00;5006608;28;20076;-75
2024/02/29 09:39:47;;;;;;;27.00;13.60;;;;;;;8.16;100.00;98660.63;4989115;28;20025;-76
2024/02/29 09:42:12;;;;;;;25.87;12.57;;;;;;;8.83;100.00;98874.59;5006120;28;20280;-74
2024/02/29 09:44:39;;;;;;;25.43;13.10;;;;;;;8.99;100.00;98854.81;5004748;28;20065;-74
2024/02/29 09:47:05;;;;;;;26.00;13.00;;;;;;;9.06;100.00;98876.09;5004781;28;20045;-75
2024/02/29 09:49:31;;;;;;;23.60;12.27;;;;;;;9.39;100.00;98926.84;5005555;28;20544;-76
2024/02/29 09:51:58;;;;;;;23.98;12.65;;;;;;;9.27;100.00;98745.53;4990818;28;20049;-76
2024/02/29 09:54:26;;;;;;;28.10;13.23;;;;;;;9.77;100.00;98854.38;5006397;28;20127;-74
2024/02/29 09:56:52;;;;;;;26.33;13.55;;;;;;;10.40;100.00;98794.50;4988059;28;20044;-74
2024/02/29 09:59:18;;;;;;;23.80;12.63;;;;;;;10.30;98.40;98602.88;5005459;28;20044;-75
2024/02/29 10:01:55;;;;;;;;;;;;;;;11.14;97.26;98731.75;5005023;28;20189;-75
2024/02/29 10:04:20;;;;;;;25.38;13.02;;;;;;;10.68;94.06;98356.56;5001531;28;19917;-76
2024/02/29 10:06:45;;;;;;;25.67;13.45;;;;;;;11.08;93.87;98502.97;5005827;28;20511;-76
2024/02/29 10:09:11;;;;;;;24.37;12.17;;;;;;;11.55;92.66;98594.16;5005994;28;20034;-76
2024/02/29 10:11:40;;;;;;;25.50;12.33;;;;;;;10.43;93.20;98373.41;5004758;28;20109;-75
2024/02/29 10:14:21;;;;;;;21.67;12.52;;;;;;;10.11;92.57;98253.50;4987904;28;20043;-75
2024/02/29 10:16:54;;;;;;;21.45;11.93;;;;;;;10.23;93.47;98455.41;4969365;28;20130;-75
2024/02/29 10:19:21;;;;;;;24.52;12.15;;;;;;;10.98;91.99;98551.53;5004499;28;20040;-75
2024/02/29 10:21:46;;;;;;;22.08;12.90;;;;;;;10.51;91.15;98332.28;5004563;28;20080;-75
2024/02/29 10:24:12;;;;;;;22.33;12.18;;;;;;;10.61;91.93;98481.22;5004706;28;20065;-75
2024/02/29 10:26:37;;;;;;;21.50;11.17;;;;;;;10.46;91.26;98453.00;5003517;28;20045;-77
2024/02/29 10:29:10;;;;;;;23.75;11.07;;;;;;;10.29;92.24;98529.25;4998420;28;20037;-75
2024/02/29 10:31:36;;;;;;;21.95;12.10;;;;;;;10.74;92.29;98668.72;5004405;28;20080;-75
2024/02/29 10:34:01;;;;;;;24.08;12.40;;;;;;;10.95;92.05;98691.59;5004542;28;20065;-76
2024/02/29 10:36:27;;;;;;;22.23;12.30;;;;;;;11.81;90.01;98698.13;5005493;28;20033;-75
2024/02/29 10:38:55;;;;;;;19.67;10.87;;;;;;;11.44;88.04;98413.19;4987899;28;20053;-75
2024/02/29 10:41:21;;;;;;;22.85;11.68;;;;;;;10.57;87.66;98161.47;5005377;28;20288;-75
2024/02/29 10:43:50;;;;;;;19.08;10.98;;;;;;;10.82;88.86;98411.44;5005476;28;20038;-75
2024/02/29 10:46:19;;;;;;;19.60;10.98;;;;;;;11.17;88.79;98560.41;5004052;28;20034;-77
2024/02/29 10:48:52;;;;;;;22.55;11.10;;;;;;;11.15;87.73;98450.31;5005302;28;20105;-74
2024/02/29 10:51:32;;;;;;;22.65;10.65;;;;;;;11.64;87.76;98603.50;5020734;28;20057;-75
2024/02/29 10:54:23;;;;;;;16.80;9.68;;;;;;;11.41;85.78;98295.03;5007649;28;20034;-75
2024/02/29 10:56:53;;;;;;;19.15;10.20;;;;;;;11.78;85.73;98441.94;4998673;28;20030;-75
2024/02/29 10:59:19;;;;;;;15.07;9.15;;;;;;;11.96;84.59;98384.97;5008381;28;20168;-74
2024/02/29 11:01:46;;;;;;;17.92;10.18;;;;;;;11.13;84.28;98147.97;5009341;28;20097;-75
2024/02/29 11:04:11;;;;;;;18.08;10.38;;;;;;;11.76;84.49;98395.09;5001225;28;20029;-75
2024/02/29 11:06:42;;;;;;;16.42;10.25;;;;;;;11.10;84.70;98287.28;4991172;28;20535;-75
2024/02/29 11:09:09;;;;;;;18.70;9.52;;;;;;;11.24;84.83;98328.78;5008189;28;20109;-75